sensor_id;sensor_type;location;lat;lon;timestamp;temperature;humidity
30385;DHT22;17181;51.002;4.096;2023-06-14T00:01:55;21.20;56.30
30385;DHT22;17181;51.002;4.096;2023-06-14T00:04:21;21.20;56.50
30385;DHT22;17181;51.002;4.096;2023-06-14T00:06:47;21.20;56.80
30385;DHT22;17181;51.002;4.096;2023-06-14T00:09:14;21.10;57.10
30385;DHT22;17181;51.002;4.096;2023-06-14T00:11:40;21.10;57.30
30385;DHT22;17181;51.002;4.096;2023-06-14T00:14:07;21.10;57.50
30385;DHT22;17181;51.002;4.096;2023-06-14T00:16:33;21.10;57.60
30385;DHT22;17181;51.002;4.096;2023-06-14T00:19:01;21.00;57.60
30385;DHT22;17181;51.002;4.096;2023-06-14T00:21:29;21.00;57.70
30385;DHT22;17181;51.002;4.096;2023-06-14T00:23:56;21.00;57.80
30385;DHT22;17181;51.002;4.096;2023-06-14T00:26:22;20.90;57.90
30385;DHT22;17181;51.002;4.096;2023-06-14T00:28:49;20.80;58.10
30385;DHT22;17181;51.002;4.096;2023-06-14T00:31:15;20.80;58.30
30385;DHT22;17181;51.002;4.096;2023-06-14T00:33:40;20.70;58.40
30385;DHT22;17181;51.002;4.096;2023-06-14T00:36:06;20.60;58.60
30385;DHT22;17181;51.002;4.096;2023-06-14T00:38:32;20.50;58.80
30385;DHT22;17181;51.002;4.096;2023-06-14T00:40:58;20.50;59.00
30385;DHT22;17181;51.002;4.096;2023-06-14T00:43:23;20.40;59.10
30385;DHT22;17181;51.002;4.096;2023-06-14T00:45:49;20.30;59.20
30385;DHT22;17181;51.002;4.096;2023-06-14T00:48:17;20.30;60.00
30385;DHT22;17181;51.002;4.096;2023-06-14T00:50:43;20.20;59.50
30385;DHT22;17181;51.002;4.096;2023-06-14T00:53:12;20.20;59.80
30385;DHT22;17181;51.002;4.096;2023-06-14T00:55:40;20.20;60.80
30385;DHT22;17181;51.002;4.096;2023-06-14T00:58:07;20.10;60.10
30385;DHT22;17181;51.002;4.096;2023-06-14T01:00:34;20.10;60.30
30385;DHT22;17181;51.002;4.096;2023-06-14T01:03:00;20.10;60.40
30385;DHT22;17181;51.002;4.096;2023-06-14T01:05:27;20.10;60.40
30385;DHT22;17181;51.002;4.096;2023-06-14T01:10:52;20.10;60.60
30385;DHT22;17181;51.002;4.096;2023-06-14T01:15:56;20.00;60.60
30385;DHT22;17181;51.002;4.096;2023-06-14T01:18:22;20.00;61.20
30385;DHT22;17181;51.002;4.096;2023-06-14T01:20:49;19.90;60.60
30385;DHT22;17181;51.002;4.096;2023-06-14T01:23:20;19.90;60.70
30385;DHT22;17181;51.002;4.096;2023-06-14T01:25:46;19.90;60.70
30385;DHT22;17181;51.002;4.096;2023-06-14T01:28:13;19.90;60.60
30385;DHT22;17181;51.002;4.096;2023-06-14T01:30:44;19.80;60.60
30385;DHT22;17181;51.002;4.096;2023-06-14T01:33:18;19.70;60.70
30385;DHT22;17181;51.002;4.096;2023-06-14T01:35:47;19.70;60.80
30385;DHT22;17181;51.002;4.096;2023-06-14T01:38:14;19.60;60.80
30385;DHT22;17181;51.002;4.096;2023-06-14T01:40:41;19.60;61.00
30385;DHT22;17181;51.002;4.096;2023-06-14T01:43:08;19.60;61.10
30385;DHT22;17181;51.002;4.096;2023-06-14T01:45:36;19.50;61.20
30385;DHT22;17181;51.002;4.096;2023-06-14T01:48:03;19.50;61.40
30385;DHT22;17181;51.002;4.096;2023-06-14T01:50:31;19.50;61.40
30385;DHT22;17181;51.002;4.096;2023-06-14T01:52:57;19.40;61.40
30385;DHT22;17181;51.002;4.096;2023-06-14T01:55:23;19.40;61.50
30385;DHT22;17181;51.002;4.096;2023-06-14T01:57:53;19.30;61.50
30385;DHT22;17181;51.002;4.096;2023-06-14T02:00:20;19.20;61.70
30385;DHT22;17181;51.002;4.096;2023-06-14T02:02:47;19.20;61.90
30385;DHT22;17181;51.002;4.096;2023-06-14T02:05:13;19.10;61.90
30385;DHT22;17181;51.002;4.096;2023-06-14T02:07:41;19.00;62.00
30385;DHT22;17181;51.002;4.096;2023-06-14T02:10:07;19.00;62.20
30385;DHT22;17181;51.002;4.096;2023-06-14T02:12:33;19.00;62.30
30385;DHT22;17181;51.002;4.096;2023-06-14T02:14:58;18.90;62.30
30385;DHT22;17181;51.002;4.096;2023-06-14T02:17:24;18.80;62.30
30385;DHT22;17181;51.002;4.096;2023-06-14T02:19:50;18.80;62.40
30385;DHT22;17181;51.002;4.096;2023-06-14T02:22:16;18.70;62.50
30385;DHT22;17181;51.002;4.096;2023-06-14T02:24:42;18.70;62.80
30385;DHT22;17181;51.002;4.096;2023-06-14T02:27:10;18.60;63.00
30385;DHT22;17181;51.002;4.096;2023-06-14T02:29:38;18.50;63.20
30385;DHT22;17181;51.002;4.096;2023-06-14T02:32:04;18.50;63.30
30385;DHT22;17181;51.002;4.096;2023-06-14T02:34:33;18.40;63.40
30385;DHT22;17181;51.002;4.096;2023-06-14T02:36:59;18.40;63.40
30385;DHT22;17181;51.002;4.096;2023-06-14T02:39:26;18.40;63.40
30385;DHT22;17181;51.002;4.096;2023-06-14T02:41:51;18.30;63.50
30385;DHT22;17181;51.002;4.096;2023-06-14T02:44:18;18.40;63.70
30385;DHT22;17181;51.002;4.096;2023-06-14T02:46:44;18.30;63.80
30385;DHT22;17181;51.002;4.096;2023-06-14T02:49:11;18.20;63.80
30385;DHT22;17181;51.002;4.096;2023-06-14T02:51:37;18.20;64.00
30385;DHT22;17181;51.002;4.096;2023-06-14T02:54:03;18.20;64.20
30385;DHT22;17181;51.002;4.096;2023-06-14T02:56:29;18.20;64.20
30385;DHT22;17181;51.002;4.096;2023-06-14T02:58:56;18.20;64.20
30385;DHT22;17181;51.002;4.096;2023-06-14T03:01:27;18.30;64.10
30385;DHT22;17181;51.002;4.096;2023-06-14T03:04:01;18.20;64.00
30385;DHT22;17181;51.002;4.096;2023-06-14T03:06:29;18.20;64.00
30385;DHT22;17181;51.002;4.096;2023-06-14T03:08:57;18.20;64.00
30385;DHT22;17181;51.002;4.096;2023-06-14T03:11:27;18.20;64.70
30385;DHT22;17181;51.002;4.096;2023-06-14T03:13:54;18.20;63.90
30385;DHT22;17181;51.002;4.096;2023-06-14T03:16:24;18.30;63.90
30385;DHT22;17181;51.002;4.096;2023-06-14T03:18:51;18.30;63.80
30385;DHT22;17181;51.002;4.096;2023-06-14T03:21:19;18.30;63.70
30385;DHT22;17181;51.002;4.096;2023-06-14T03:23:46;18.30;63.50
30385;DHT22;17181;51.002;4.096;2023-06-14T03:26:12;18.30;63.40
30385;DHT22;17181;51.002;4.096;2023-06-14T03:28:40;18.30;63.40
30385;DHT22;17181;51.002;4.096;2023-06-14T03:31:07;18.30;63.30
30385;DHT22;17181;51.002;4.096;2023-06-14T03:33:35;18.30;63.30
30385;DHT22;17181;51.002;4.096;2023-06-14T03:36:02;18.30;64.00
30385;DHT22;17181;51.002;4.096;2023-06-14T03:38:28;18.30;63.90
30385;DHT22;17181;51.002;4.096;2023-06-14T03:40:54;18.30;63.10
30385;DHT22;17181;51.002;4.096;2023-06-14T03:43:20;18.20;62.90
30385;DHT22;17181;51.002;4.096;2023-06-14T03:45:46;18.30;63.00
30385;DHT22;17181;51.002;4.096;2023-06-14T03:48:13;18.20;62.80
30385;DHT22;17181;51.002;4.096;2023-06-14T03:50:39;18.30;62.80
30385;DHT22;17181;51.002;4.096;2023-06-14T03:53:06;18.30;62.70
30385;DHT22;17181;51.002;4.096;2023-06-14T03:55:32;18.30;62.60
30385;DHT22;17181;51.002;4.096;2023-06-14T03:57:59;18.30;62.50
30385;DHT22;17181;51.002;4.096;2023-06-14T04:00:25;18.40;62.50
30385;DHT22;17181;51.002;4.096;2023-06-14T04:02:51;18.40;62.40
30385;DHT22;17181;51.002;4.096;2023-06-14T04:05:18;18.40;62.40
30385;DHT22;17181;51.002;4.096;2023-06-14T04:07:48;18.40;62.40
30385;DHT22;17181;51.002;4.096;2023-06-14T04:10:15;18.40;62.30
30385;DHT22;17181;51.002;4.096;2023-06-14T04:12:41;18.40;62.20
30385;DHT22;17181;51.002;4.096;2023-06-14T04:15:08;18.40;62.20
30385;DHT22;17181;51.002;4.096;2023-06-14T04:17:36;18.40;62.20
30385;DHT22;17181;51.002;4.096;2023-06-14T04:20:03;18.50;62.20
30385;DHT22;17181;51.002;4.096;2023-06-14T04:22:34;18.50;62.20
30385;DHT22;17181;51.002;4.096;2023-06-14T04:25:02;18.50;62.00
30385;DHT22;17181;51.002;4.096;2023-06-14T04:27:29;18.60;62.10
30385;DHT22;17181;51.002;4.096;2023-06-14T04:29:58;18.60;62.00
30385;DHT22;17181;51.002;4.096;2023-06-14T04:32:33;18.60;61.90
30385;DHT22;17181;51.002;4.096;2023-06-14T04:35:00;18.70;61.90
30385;DHT22;17181;51.002;4.096;2023-06-14T04:37:28;18.80;61.90
30385;DHT22;17181;51.002;4.096;2023-06-14T04:39:56;18.90;61.70
30385;DHT22;17181;51.002;4.096;2023-06-14T04:42:23;18.90;61.50
30385;DHT22;17181;51.002;4.096;2023-06-14T04:44:51;19.00;61.50
30385;DHT22;17181;51.002;4.096;2023-06-14T04:47:21;19.10;61.30
30385;DHT22;17181;51.002;4.096;2023-06-14T04:49:47;19.20;61.20
30385;DHT22;17181;51.002;4.096;2023-06-14T04:52:13;19.30;61.20
30385;DHT22;17181;51.002;4.096;2023-06-14T04:54:42;19.40;61.20
30385;DHT22;17181;51.002;4.096;2023-06-14T04:57:09;19.40;61.10
30385;DHT22;17181;51.002;4.096;2023-06-14T04:59:41;19.50;61.00
30385;DHT22;17181;51.002;4.096;2023-06-14T05:02:07;19.60;60.90
30385;DHT22;17181;51.002;4.096;2023-06-14T05:04:34;19.70;61.50
30385;DHT22;17181;51.002;4.096;2023-06-14T05:07:00;19.70;60.60
30385;DHT22;17181;51.002;4.096;2023-06-14T05:09:28;19.80;60.30
30385;DHT22;17181;51.002;4.096;2023-06-14T05:11:54;19.90;60.30
30385;DHT22;17181;51.002;4.096;2023-06-14T05:14:20;20.10;60.30
30385;DHT22;17181;51.002;4.096;2023-06-14T05:16:49;20.10;60.00
30385;DHT22;17181;51.002;4.096;2023-06-14T05:19:15;20.20;60.00
30385;DHT22;17181;51.002;4.096;2023-06-14T05:21:43;20.30;59.90
30385;DHT22;17181;51.002;4.096;2023-06-14T05:24:09;20.40;59.90
30385;DHT22;17181;51.002;4.096;2023-06-14T05:26:35;20.50;59.90
30385;DHT22;17181;51.002;4.096;2023-06-14T05:29:00;20.60;59.80
30385;DHT22;17181;51.002;4.096;2023-06-14T05:31:28;20.70;59.60
30385;DHT22;17181;51.002;4.096;2023-06-14T05:33:54;20.80;59.40
30385;DHT22;17181;51.002;4.096;2023-06-14T05:36:20;20.90;59.30
30385;DHT22;17181;51.002;4.096;2023-06-14T05:38:49;21.00;59.20
30385;DHT22;17181;51.002;4.096;2023-06-14T05:41:17;21.10;58.90
30385;DHT22;17181;51.002;4.096;2023-06-14T05:43:42;21.20;58.70
30385;DHT22;17181;51.002;4.096;2023-06-14T05:46:08;21.30;58.50
30385;DHT22;17181;51.002;4.096;2023-06-14T05:48:34;21.40;58.40
30385;DHT22;17181;51.002;4.096;2023-06-14T05:51:00;21.50;58.30
30385;DHT22;17181;51.002;4.096;2023-06-14T05:53:26;21.50;58.10
30385;DHT22;17181;51.002;4.096;2023-06-14T05:55:51;21.60;58.00
30385;DHT22;17181;51.002;4.096;2023-06-14T05:58:19;21.70;57.80
30385;DHT22;17181;51.002;4.096;2023-06-14T06:00:45;21.90;57.80
30385;DHT22;17181;51.002;4.096;2023-06-14T06:03:11;22.00;57.60
30385;DHT22;17181;51.002;4.096;2023-06-14T06:05:39;22.00;57.40
30385;DHT22;17181;51.002;4.096;2023-06-14T06:08:05;22.10;57.20
30385;DHT22;17181;51.002;4.096;2023-06-14T06:10:31;22.20;57.20
30385;DHT22;17181;51.002;4.096;2023-06-14T06:12:57;22.30;57.10
30385;DHT22;17181;51.002;4.096;2023-06-14T06:15:22;22.40;57.00
30385;DHT22;17181;51.002;4.096;2023-06-14T06:17:48;22.50;56.90
30385;DHT22;17181;51.002;4.096;2023-06-14T06:20:14;22.50;56.80
30385;DHT22;17181;51.002;4.096;2023-06-14T06:22:40;22.70;56.90
30385;DHT22;17181;51.002;4.096;2023-06-14T06:25:06;22.80;56.80
30385;DHT22;17181;51.002;4.096;2023-06-14T06:27:32;22.90;56.60
30385;DHT22;17181;51.002;4.096;2023-06-14T06:29:58;22.90;56.40
30385;DHT22;17181;51.002;4.096;2023-06-14T06:32:24;23.10;56.40
30385;DHT22;17181;51.002;4.096;2023-06-14T06:34:50;23.10;56.40
30385;DHT22;17181;51.002;4.096;2023-06-14T06:37:17;23.20;56.30
30385;DHT22;17181;51.002;4.096;2023-06-14T06:39:43;23.30;56.20
30385;DHT22;17181;51.002;4.096;2023-06-14T06:42:09;23.30;56.00
30385;DHT22;17181;51.002;4.096;2023-06-14T06:44:36;23.40;55.90
30385;DHT22;17181;51.002;4.096;2023-06-14T06:47:02;23.50;55.80
30385;DHT22;17181;51.002;4.096;2023-06-14T06:49:28;23.60;55.70
30385;DHT22;17181;51.002;4.096;2023-06-14T06:52:04;23.70;55.60
30385;DHT22;17181;51.002;4.096;2023-06-14T06:54:30;23.80;55.50
30385;DHT22;17181;51.002;4.096;2023-06-14T06:56:56;23.80;55.40
30385;DHT22;17181;51.002;4.096;2023-06-14T06:59:22;23.90;55.30
30385;DHT22;17181;51.002;4.096;2023-06-14T07:01:48;24.00;55.10
30385;DHT22;17181;51.002;4.096;2023-06-14T07:04:14;24.10;54.90
30385;DHT22;17181;51.002;4.096;2023-06-14T07:06:42;24.10;54.80
30385;DHT22;17181;51.002;4.096;2023-06-14T07:09:08;24.20;54.60
30385;DHT22;17181;51.002;4.096;2023-06-14T07:11:38;24.30;54.60
30385;DHT22;17181;51.002;4.096;2023-06-14T07:14:05;24.40;55.20
30385;DHT22;17181;51.002;4.096;2023-06-14T07:16:31;24.50;54.50
30385;DHT22;17181;51.002;4.096;2023-06-14T07:18:57;24.60;54.30
30385;DHT22;17181;51.002;4.096;2023-06-14T07:21:23;24.70;54.10
30385;DHT22;17181;51.002;4.096;2023-06-14T07:23:52;24.80;53.80
30385;DHT22;17181;51.002;4.096;2023-06-14T07:26:17;24.90;53.70
30385;DHT22;17181;51.002;4.096;2023-06-14T07:28:43;24.90;53.50
30385;DHT22;17181;51.002;4.096;2023-06-14T07:31:10;25.00;53.20
30385;DHT22;17181;51.002;4.096;2023-06-14T07:33:36;25.10;53.00
30385;DHT22;17181;51.002;4.096;2023-06-14T07:36:02;25.10;52.80
30385;DHT22;17181;51.002;4.096;2023-06-14T07:38:29;25.20;52.80
30385;DHT22;17181;51.002;4.096;2023-06-14T07:40:55;25.30;52.80
30385;DHT22;17181;51.002;4.096;2023-06-14T07:43:20;25.40;52.70
30385;DHT22;17181;51.002;4.096;2023-06-14T07:45:46;25.50;52.50
30385;DHT22;17181;51.002;4.096;2023-06-14T07:48:12;25.50;52.40
30385;DHT22;17181;51.002;4.096;2023-06-14T07:50:37;25.60;52.30
30385;DHT22;17181;51.002;4.096;2023-06-14T07:53:03;25.70;52.00
30385;DHT22;17181;51.002;4.096;2023-06-14T07:55:29;25.80;51.70
30385;DHT22;17181;51.002;4.096;2023-06-14T07:57:58;25.80;51.40
30385;DHT22;17181;51.002;4.096;2023-06-14T08:00:24;25.90;51.40
30385;DHT22;17181;51.002;4.096;2023-06-14T08:02:49;26.00;51.20
30385;DHT22;17181;51.002;4.096;2023-06-14T08:05:17;26.00;51.10
30385;DHT22;17181;51.002;4.096;2023-06-14T08:07:43;26.20;51.10
30385;DHT22;17181;51.002;4.096;2023-06-14T08:10:09;26.20;50.90
30385;DHT22;17181;51.002;4.096;2023-06-14T08:12:36;26.30;50.90
30385;DHT22;17181;51.002;4.096;2023-06-14T08:15:03;26.50;50.80
30385;DHT22;17181;51.002;4.096;2023-06-14T08:17:29;26.60;50.60
30385;DHT22;17181;51.002;4.096;2023-06-14T08:19:54;26.70;50.40
30385;DHT22;17181;51.002;4.096;2023-06-14T08:22:23;26.70;50.20
30385;DHT22;17181;51.002;4.096;2023-06-14T08:24:50;26.80;50.10
30385;DHT22;17181;51.002;4.096;2023-06-14T08:27:16;26.90;50.00
30385;DHT22;17181;51.002;4.096;2023-06-14T08:29:42;27.00;49.90
30385;DHT22;17181;51.002;4.096;2023-06-14T08:32:07;27.10;49.80
30385;DHT22;17181;51.002;4.096;2023-06-14T08:34:33;27.20;49.70
30385;DHT22;17181;51.002;4.096;2023-06-14T08:36:59;27.30;49.40
30385;DHT22;17181;51.002;4.096;2023-06-14T08:39:25;27.30;49.30
30385;DHT22;17181;51.002;4.096;2023-06-14T08:41:54;27.40;49.10
30385;DHT22;17181;51.002;4.096;2023-06-14T08:44:22;27.40;48.80
30385;DHT22;17181;51.002;4.096;2023-06-14T08:46:48;27.50;48.60
30385;DHT22;17181;51.002;4.096;2023-06-14T08:49:16;27.60;48.50
30385;DHT22;17181;51.002;4.096;2023-06-14T08:51:43;27.60;48.20
30385;DHT22;17181;51.002;4.096;2023-06-14T08:54:11;27.70;48.10
30385;DHT22;17181;51.002;4.096;2023-06-14T08:56:40;27.70;48.10
30385;DHT22;17181;51.002;4.096;2023-06-14T08:59:07;27.70;47.80
30385;DHT22;17181;51.002;4.096;2023-06-14T09:01:36;27.80;47.50
30385;DHT22;17181;51.002;4.096;2023-06-14T09:04:02;27.90;47.30
30385;DHT22;17181;51.002;4.096;2023-06-14T09:06:28;27.90;47.20
30385;DHT22;17181;51.002;4.096;2023-06-14T09:08:55;28.00;47.20
30385;DHT22;17181;51.002;4.096;2023-06-14T09:11:25;28.00;46.90
30385;DHT22;17181;51.002;4.096;2023-06-14T09:13:52;28.10;46.90
30385;DHT22;17181;51.002;4.096;2023-06-14T09:16:18;28.10;47.00
30385;DHT22;17181;51.002;4.096;2023-06-14T09:18:45;28.10;46.80
30385;DHT22;17181;51.002;4.096;2023-06-14T09:21:14;28.20;47.00
30385;DHT22;17181;51.002;4.096;2023-06-14T09:23:42;28.10;47.00
30385;DHT22;17181;51.002;4.096;2023-06-14T09:26:13;28.20;46.90
30385;DHT22;17181;51.002;4.096;2023-06-14T09:28:49;28.20;46.80
30385;DHT22;17181;51.002;4.096;2023-06-14T09:31:17;28.20;46.50
30385;DHT22;17181;51.002;4.096;2023-06-14T09:33:48;28.20;46.20
30385;DHT22;17181;51.002;4.096;2023-06-14T09:36:24;28.20;46.00
30385;DHT22;17181;51.002;4.096;2023-06-14T09:39:01;28.30;45.90
30385;DHT22;17181;51.002;4.096;2023-06-14T09:41:36;28.30;46.00
30385;DHT22;17181;51.002;4.096;2023-06-14T09:44:09;28.30;46.00
30385;DHT22;17181;51.002;4.096;2023-06-14T09:46:36;28.30;46.10
30385;DHT22;17181;51.002;4.096;2023-06-14T09:49:03;28.30;46.00
30385;DHT22;17181;51.002;4.096;2023-06-14T09:51:30;28.30;46.00
30385;DHT22;17181;51.002;4.096;2023-06-14T09:54:00;28.40;46.20
30385;DHT22;17181;51.002;4.096;2023-06-14T09:56:31;28.40;46.30
30385;DHT22;17181;51.002;4.096;2023-06-14T09:58:59;28.40;46.40
30385;DHT22;17181;51.002;4.096;2023-06-14T10:01:30;28.50;46.50
30385;DHT22;17181;51.002;4.096;2023-06-14T10:04:02;28.50;46.50
30385;DHT22;17181;51.002;4.096;2023-06-14T10:06:29;28.50;46.60
30385;DHT22;17181;51.002;4.096;2023-06-14T10:08:59;28.50;46.60
30385;DHT22;17181;51.002;4.096;2023-06-14T10:11:28;28.60;46.50
30385;DHT22;17181;51.002;4.096;2023-06-14T10:13:55;28.70;46.30
30385;DHT22;17181;51.002;4.096;2023-06-14T10:16:27;28.70;46.00
30385;DHT22;17181;51.002;4.096;2023-06-14T10:19:18;28.70;45.70
30385;DHT22;17181;51.002;4.096;2023-06-14T10:24:16;28.70;45.10
30385;DHT22;17181;51.002;4.096;2023-06-14T10:26:54;28.70;45.00
30385;DHT22;17181;51.002;4.096;2023-06-14T10:29:20;28.70;44.80
30385;DHT22;17181;51.002;4.096;2023-06-14T10:31:50;28.70;44.50
30385;DHT22;17181;51.002;4.096;2023-06-14T10:37:01;28.60;43.80
30385;DHT22;17181;51.002;4.096;2023-06-14T10:39:28;28.60;43.80
30385;DHT22;17181;51.002;4.096;2023-06-14T10:41:56;28.60;44.00
30385;DHT22;17181;51.002;4.096;2023-06-14T10:46:48;28.60;43.90
30385;DHT22;17181;51.002;4.096;2023-06-14T10:49:18;28.60;43.80
30385;DHT22;17181;51.002;4.096;2023-06-14T10:51:55;28.60;43.50
30385;DHT22;17181;51.002;4.096;2023-06-14T10:54:23;28.70;43.70
30385;DHT22;17181;51.002;4.096;2023-06-14T10:56:52;28.70;43.70
30385;DHT22;17181;51.002;4.096;2023-06-14T10:59:19;28.70;43.60
30385;DHT22;17181;51.002;4.096;2023-06-14T11:04:20;28.80;43.20
30385;DHT22;17181;51.002;4.096;2023-06-14T11:06:47;28.90;43.30
30385;DHT22;17181;51.002;4.096;2023-06-14T11:12:07;28.90;42.50
30385;DHT22;17181;51.002;4.096;2023-06-14T11:14:35;28.90;42.50
30385;DHT22;17181;51.002;4.096;2023-06-14T11:17:01;28.90;42.50
30385;DHT22;17181;51.002;4.096;2023-06-14T11:19:27;28.90;42.60
30385;DHT22;17181;51.002;4.096;2023-06-14T11:21:55;28.90;42.60
30385;DHT22;17181;51.002;4.096;2023-06-14T11:24:20;29.00;42.30
30385;DHT22;17181;51.002;4.096;2023-06-14T11:26:47;29.00;42.10
30385;DHT22;17181;51.002;4.096;2023-06-14T11:29:15;29.10;42.00
30385;DHT22;17181;51.002;4.096;2023-06-14T11:31:44;29.20;41.50
30385;DHT22;17181;51.002;4.096;2023-06-14T11:34:13;29.20;41.60
30385;DHT22;17181;51.002;4.096;2023-06-14T11:36:39;29.30;41.60
30385;DHT22;17181;51.002;4.096;2023-06-14T11:39:06;29.40;41.50
30385;DHT22;17181;51.002;4.096;2023-06-14T11:41:37;29.50;41.30
30385;DHT22;17181;51.002;4.096;2023-06-14T11:44:03;29.60;41.20
30385;DHT22;17181;51.002;4.096;2023-06-14T11:46:29;29.60;40.60
30385;DHT22;17181;51.002;4.096;2023-06-14T11:48:55;29.60;40.50
30385;DHT22;17181;51.002;4.096;2023-06-14T11:51:21;29.60;40.60
30385;DHT22;17181;51.002;4.096;2023-06-14T11:53:47;29.70;40.70
30385;DHT22;17181;51.002;4.096;2023-06-14T11:56:13;29.70;40.40
30385;DHT22;17181;51.002;4.096;2023-06-14T11:58:39;29.80;40.20
30385;DHT22;17181;51.002;4.096;2023-06-14T12:01:05;29.80;40.30
30385;DHT22;17181;51.002;4.096;2023-06-14T12:03:31;29.90;40.20
30385;DHT22;17181;51.002;4.096;2023-06-14T12:06:07;29.90;40.20
30385;DHT22;17181;51.002;4.096;2023-06-14T12:08:37;30.00;40.10
30385;DHT22;17181;51.002;4.096;2023-06-14T12:11:10;30.00;40.00
30385;DHT22;17181;51.002;4.096;2023-06-14T12:13:38;30.10;39.50
30385;DHT22;17181;51.002;4.096;2023-06-14T12:16:06;30.00;39.40
30385;DHT22;17181;51.002;4.096;2023-06-14T12:18:36;29.90;39.30
30385;DHT22;17181;51.002;4.096;2023-06-14T12:21:08;29.80;39.40
30385;DHT22;17181;51.002;4.096;2023-06-14T12:23:53;29.90;39.50
30385;DHT22;17181;51.002;4.096;2023-06-14T12:26:20;30.00;39.50
30385;DHT22;17181;51.002;4.096;2023-06-14T12:28:47;30.00;39.30
30385;DHT22;17181;51.002;4.096;2023-06-14T12:31:15;30.10;39.30
30385;DHT22;17181;51.002;4.096;2023-06-14T12:33:41;30.20;39.40
30385;DHT22;17181;51.002;4.096;2023-06-14T12:36:08;30.30;39.30
30385;DHT22;17181;51.002;4.096;2023-06-14T12:38:36;30.30;39.10
30385;DHT22;17181;51.002;4.096;2023-06-14T12:41:02;30.40;38.80
30385;DHT22;17181;51.002;4.096;2023-06-14T12:43:27;30.40;38.60
30385;DHT22;17181;51.002;4.096;2023-06-14T12:45:53;30.30;38.40
30385;DHT22;17181;51.002;4.096;2023-06-14T12:48:19;30.30;38.40
30385;DHT22;17181;51.002;4.096;2023-06-14T12:50:45;30.30;38.30
30385;DHT22;17181;51.002;4.096;2023-06-14T12:53:11;30.40;38.30
30385;DHT22;17181;51.002;4.096;2023-06-14T12:55:37;30.50;38.20
30385;DHT22;17181;51.002;4.096;2023-06-14T12:58:03;30.60;38.20
30385;DHT22;17181;51.002;4.096;2023-06-14T13:00:29;30.70;38.00
30385;DHT22;17181;51.002;4.096;2023-06-14T13:02:57;30.80;37.60
30385;DHT22;17181;51.002;4.096;2023-06-14T13:05:23;30.90;37.30
30385;DHT22;17181;51.002;4.096;2023-06-14T13:07:50;31.20;37.40
30385;DHT22;17181;51.002;4.096;2023-06-14T13:10:16;31.80;37.30
30385;DHT22;17181;51.002;4.096;2023-06-14T13:12:42;32.30;36.70
30385;DHT22;17181;51.002;4.096;2023-06-14T13:15:08;32.80;36.60
30385;DHT22;17181;51.002;4.096;2023-06-14T13:17:34;33.40;36.20
30385;DHT22;17181;51.002;4.096;2023-06-14T13:20:07;34.20;35.90
30385;DHT22;17181;51.002;4.096;2023-06-14T13:22:36;35.00;35.30
30385;DHT22;17181;51.002;4.096;2023-06-14T13:25:03;35.80;35.00
30385;DHT22;17181;51.002;4.096;2023-06-14T13:27:29;36.60;34.40
30385;DHT22;17181;51.002;4.096;2023-06-14T13:29:55;37.20;33.30
30385;DHT22;17181;51.002;4.096;2023-06-14T13:32:21;37.60;32.80
30385;DHT22;17181;51.002;4.096;2023-06-14T13:34:47;37.90;32.20
30385;DHT22;17181;51.002;4.096;2023-06-14T13:37:13;38.10;31.10
30385;DHT22;17181;51.002;4.096;2023-06-14T13:39:39;38.20;31.20
30385;DHT22;17181;51.002;4.096;2023-06-14T13:42:06;38.20;30.80
30385;DHT22;17181;51.002;4.096;2023-06-14T13:44:32;38.30;30.70
30385;DHT22;17181;51.002;4.096;2023-06-14T13:46:57;38.20;30.70
30385;DHT22;17181;51.002;4.096;2023-06-14T13:49:23;38.10;30.60
30385;DHT22;17181;51.002;4.096;2023-06-14T13:51:49;38.20;30.50
30385;DHT22;17181;51.002;4.096;2023-06-14T13:54:14;38.30;30.50
30385;DHT22;17181;51.002;4.096;2023-06-14T13:56:41;38.60;30.60
30385;DHT22;17181;51.002;4.096;2023-06-14T13:59:07;39.00;30.40
30385;DHT22;17181;51.002;4.096;2023-06-14T14:01:33;39.40;29.90
30385;DHT22;17181;51.002;4.096;2023-06-14T14:03:58;39.60;29.40
30385;DHT22;17181;51.002;4.096;2023-06-14T14:06:26;39.40;29.10
30385;DHT22;17181;51.002;4.096;2023-06-14T14:08:52;39.30;29.00
30385;DHT22;17181;51.002;4.096;2023-06-14T14:11:19;39.20;28.80
30385;DHT22;17181;51.002;4.096;2023-06-14T14:13:46;39.10;28.60
30385;DHT22;17181;51.002;4.096;2023-06-14T14:16:13;39.00;28.40
30385;DHT22;17181;51.002;4.096;2023-06-14T14:18:39;38.90;28.50
30385;DHT22;17181;51.002;4.096;2023-06-14T14:21:06;38.80;28.40
30385;DHT22;17181;51.002;4.096;2023-06-14T14:23:32;38.40;28.20
30385;DHT22;17181;51.002;4.096;2023-06-14T14:25:57;38.10;28.50
30385;DHT22;17181;51.002;4.096;2023-06-14T14:28:23;38.20;28.60
30385;DHT22;17181;51.002;4.096;2023-06-14T14:30:49;38.50;28.30
30385;DHT22;17181;51.002;4.096;2023-06-14T14:33:15;38.80;28.10
30385;DHT22;17181;51.002;4.096;2023-06-14T14:35:43;39.00;27.60
30385;DHT22;17181;51.002;4.096;2023-06-14T14:38:14;38.90;27.40
30385;DHT22;17181;51.002;4.096;2023-06-14T14:40:43;38.60;27.30
30385;DHT22;17181;51.002;4.096;2023-06-14T14:43:10;38.30;27.50
30385;DHT22;17181;51.002;4.096;2023-06-14T14:45:36;38.30;27.40
30385;DHT22;17181;51.002;4.096;2023-06-14T14:48:02;38.40;27.40
30385;DHT22;17181;51.002;4.096;2023-06-14T14:50:28;38.60;27.30
30385;DHT22;17181;51.002;4.096;2023-06-14T14:52:54;38.80;27.30
30385;DHT22;17181;51.002;4.096;2023-06-14T14:55:20;38.80;27.10
30385;DHT22;17181;51.002;4.096;2023-06-14T14:57:46;38.90;27.00
30385;DHT22;17181;51.002;4.096;2023-06-14T15:00:13;38.90;26.90
30385;DHT22;17181;51.002;4.096;2023-06-14T15:02:39;38.60;26.80
30385;DHT22;17181;51.002;4.096;2023-06-14T15:05:06;38.40;27.00
30385;DHT22;17181;51.002;4.096;2023-06-14T15:07:31;38.20;26.80
30385;DHT22;17181;51.002;4.096;2023-06-14T15:09:59;37.90;26.60
30385;DHT22;17181;51.002;4.096;2023-06-14T15:12:25;37.50;26.90
30385;DHT22;17181;51.002;4.096;2023-06-14T15:14:51;37.20;27.20
30385;DHT22;17181;51.002;4.096;2023-06-14T15:17:18;37.00;27.20
30385;DHT22;17181;51.002;4.096;2023-06-14T15:19:48;36.70;27.40
30385;DHT22;17181;51.002;4.096;2023-06-14T15:22:14;36.40;27.50
30385;DHT22;17181;51.002;4.096;2023-06-14T15:24:44;36.00;27.70
30385;DHT22;17181;51.002;4.096;2023-06-14T15:27:10;35.70;27.90
30385;DHT22;17181;51.002;4.096;2023-06-14T15:29:38;35.50;28.00
30385;DHT22;17181;51.002;4.096;2023-06-14T15:32:05;35.40;28.20
30385;DHT22;17181;51.002;4.096;2023-06-14T15:34:32;35.20;28.20
30385;DHT22;17181;51.002;4.096;2023-06-14T15:36:58;35.10;28.30
30385;DHT22;17181;51.002;4.096;2023-06-14T15:39:23;35.00;28.40
30385;DHT22;17181;51.002;4.096;2023-06-14T15:41:50;34.80;28.60
30385;DHT22;17181;51.002;4.096;2023-06-14T15:44:17;34.60;28.80
30385;DHT22;17181;51.002;4.096;2023-06-14T15:46:43;34.50;28.90
30385;DHT22;17181;51.002;4.096;2023-06-14T15:49:09;34.30;29.00